Time;durP1;ratioP1;P1;durP2;ratioP2;P2;SDS_P1;SDS_P2;PMS_P1;PMS_P2;Temp;Humidity;BMP_temperature;BMP_pressure;BME280_temperature;BME280_humidity;BME280_pressure;Samples;Min_cycle;Max_cycle;Signal;HPM_P1;HPM_P2
2023/05/07 00:01:16;;;;;;;20.48;18.40;;;13.40;99.90;;;;;;5037549;28;20602;-37
2023/05/07 00:03:41;;;;;;;22.63;19.17;;;13.40;99.90;;;;;;5037115;28;20040;-47
2023/05/07 00:06:07;;;;;;;20.35;18.15;;;13.50;99.90;;;;;;5038956;28;20127;-45
2023/05/07 00:08:33;;;;;;;21.02;18.75;;;13.40;99.90;;;;;;5037525;28;20045;-39
2023/05/07 00:10:58;;;;;;;19.75;17.25;;;13.40;99.90;;;;;;5038033;28;20094;-39
2023/05/07 00:13:24;;;;;;;23.67;20.10;;;13.40;99.90;;;;;;5036914;28;20124;-46
2023/05/07 00:15:49;;;;;;;26.13;20.88;;;13.40;99.90;;;;;;5038096;28;20774;-41
2023/05/07 00:18:15;;;;;;;21.52;19.27;;;13.40;99.90;;;;;;5034317;28;20418;-45
2023/05/07 00:20:41;;;;;;;20.48;18.30;;;13.40;99.90;;;;;;5028826;28;20392;-41
2023/05/07 00:23:07;;;;;;;22.58;18.85;;;13.30;99.90;;;;;;5033972;28;20037;-46
2023/05/07 00:25:32;;;;;;;20.70;18.50;;;13.40;99.90;;;;;;5034476;28;20052;-40
2023/05/07 00:28:03;;;;;;;25.17;20.35;;;13.40;99.90;;;;;;5036874;28;20124;-42
2023/05/07 00:30:29;;;;;;;21.13;18.92;;;13.40;99.90;;;;;;5012966;28;20045;-42
2023/05/07 00:32:54;;;;;;;21.40;19.13;;;13.40;99.90;;;;;;5018502;28;20053;-41
2023/05/07 00:35:20;;;;;;;21.67;19.33;;;13.40;99.90;;;;;;5020331;28;20187;-42
2023/05/07 00:37:46;;;;;;;24.08;19.55;;;13.30;99.90;;;;;;5030155;28;20049;-39
2023/05/07 00:40:11;;;;;;;20.95;18.70;;;13.30;99.90;;;;;;5036946;28;20048;-38
2023/05/07 00:42:37;;;;;;;23.83;19.73;;;13.30;99.90;;;;;;5035752;28;20051;-48
2023/05/07 00:45:03;;;;;;;26.63;19.20;;;13.30;99.90;;;;;;5036667;28;20572;-41
2023/05/07 00:47:28;;;;;;;20.88;17.98;;;13.30;99.90;;;;;;5037252;28;20052;-44
2023/05/07 00:49:54;;;;;;;19.67;17.65;;;13.30;99.90;;;;;;5023841;28;20041;-43
2023/05/07 00:52:23;;;;;;;21.35;18.55;;;13.20;99.90;;;;;;5035827;28;20561;-42
2023/05/07 00:54:49;;;;;;;20.60;18.45;;;13.20;99.90;;;;;;5036220;28;20045;-38
2023/05/07 00:57:15;;;;;;;19.58;17.58;;;13.20;99.90;;;;;;5036319;28;20835;-45
2023/05/07 00:59:41;;;;;;;22.85;18.65;;;13.20;99.90;;;;;;5035831;28;20102;-43
2023/05/07 01:02:07;;;;;;;19.08;17.05;;;13.20;99.90;;;;;;5035432;28;20051;-45
2023/05/07 01:04:33;;;;;;;21.42;18.35;;;13.10;99.90;;;;;;5036155;28;20502;-46
2023/05/07 01:07:00;;;;;;;20.70;18.40;;;13.20;99.90;;;;;;5026353;28;20106;-44
2023/05/07 01:09:27;;;;;;;20.55;18.27;;;13.20;99.90;;;;;;5036279;28;20167;-42
2023/05/07 01:11:54;;;;;;;23.23;18.92;;;13.10;99.90;;;;;;5034818;28;20128;-45
2023/05/07 01:14:20;;;;;;;22.40;18.20;;;13.10;99.90;;;;;;5036069;28;20053;-40
2023/05/07 01:16:47;;;;;;;18.90;16.98;;;13.10;99.90;;;;;;5035737;28;20063;-47
2023/05/07 01:19:17;;;;;;;20.35;18.27;;;13.10;99.90;;;;;;5036967;28;20064;-41
2023/05/07 01:21:48;;;;;;;19.90;17.92;;;13.10;99.90;;;;;;5035068;28;20075;-40
2023/05/07 01:24:16;;;;;;;19.60;17.23;;;13.10;99.90;;;;;;5035996;28;20095;-45
2023/05/07 01:26:44;;;;;;;20.65;17.83;;;13.00;99.90;;;;;;5034997;28;20063;-40
2023/05/07 01:29:10;;;;;;;21.02;18.77;;;13.00;99.90;;;;;;5036120;28;20170;-38
2023/05/07 01:31:37;;;;;;;20.23;17.90;;;13.00;99.90;;;;;;5017272;28;21122;-43
2023/05/07 01:34:04;;;;;;;21.92;19.20;;;13.00;99.90;;;;;;5035909;28;20052;-43
2023/05/07 01:36:32;;;;;;;19.52;17.10;;;13.00;99.90;;;;;;5015010;28;20862;-48
2023/05/07 01:38:58;;;;;;;19.25;17.33;;;13.00;99.90;;;;;;5036202;28;20056;-41
2023/05/07 01:41:24;;;;;;;21.55;18.60;;;13.00;99.90;;;;;;5033374;28;20124;-42
2023/05/07 01:43:51;;;;;;;19.35;17.27;;;12.90;99.90;;;;;;5035488;28;20037;-39
2023/05/07 01:46:18;;;;;;;20.90;18.10;;;13.00;99.90;;;;;;5034980;28;20514;-43
2023/05/07 01:48:45;;;;;;;22.10;18.83;;;13.00;99.90;;;;;;5017198;28;20343;-43
2023/05/07 01:51:12;;;;;;;20.00;18.00;;;12.90;99.90;;;;;;5016914;28;20037;-43
2023/05/07 01:53:39;;;;;;;22.17;18.52;;;12.90;99.90;;;;;;5034679;28;20049;-39
2023/05/07 01:56:05;;;;;;;21.00;18.90;;;12.90;99.90;;;;;;5034747;28;20138;-44
2023/05/07 01:58:31;;;;;;;21.83;19.52;;;12.90;99.90;;;;;;5018142;28;20494;-49
2023/05/07 02:00:56;;;;;;;21.60;18.30;;;12.90;99.90;;;;;;5017088;28;20049;-40
2023/05/07 02:03:22;;;;;;;23.83;21.35;;;12.90;99.90;;;;;;5034692;28;20620;-43
2023/05/07 02:05:47;;;;;;;23.35;21.05;;;12.80;99.90;;;;;;5016611;28;20776;-37
2023/05/07 02:08:13;;;;;;;24.92;22.33;;;12.80;99.90;;;;;;5035382;28;20044;-40
2023/05/07 02:10:39;;;;;;;25.75;23.02;;;12.80;99.90;;;;;;5033817;28;20059;-40
2023/05/07 02:13:04;;;;;;;24.52;21.92;;;12.80;99.90;;;;;;5005920;28;20902;-43
2023/05/07 02:15:30;;;;;;;28.20;22.50;;;12.80;99.90;;;;;;5033745;28;20049;-48
2023/05/07 02:18:07;;;;;;;27.55;24.50;;;12.80;99.90;;;;;;5035555;28;20236;-44
2023/05/07 02:20:33;;;;;;;25.92;23.23;;;12.70;99.90;;;;;;5002987;28;20080;-43
2023/05/07 02:22:59;;;;;;;26.55;23.75;;;12.70;99.90;;;;;;5034770;28;20503;-39
2023/05/07 02:25:24;;;;;;;29.00;25.92;;;12.70;99.90;;;;;;5010343;28;20060;-45
2023/05/07 02:27:50;;;;;;;27.95;25.13;;;12.70;99.90;;;;;;5028336;28;20049;-44
2023/05/07 02:30:16;;;;;;;31.10;26.65;;;12.60;99.90;;;;;;5033971;28;20045;-41
2023/05/07 02:32:41;;;;;;;29.60;26.42;;;12.60;99.90;;;;;;5033966;28;20049;-38
2023/05/07 02:35:07;;;;;;;29.75;25.92;;;12.60;99.90;;;;;;5034033;28;20049;-43
2023/05/07 02:37:33;;;;;;;30.33;26.40;;;12.50;99.90;;;;;;5034697;28;20052;-40
2023/05/07 02:39:59;;;;;;;36.05;28.33;;;12.50;99.90;;;;;;5035056;28;20048;-39
2023/05/07 02:42:24;;;;;;;30.92;27.63;;;12.50;99.90;;;;;;5033013;28;20044;-41
2023/05/07 02:44:50;;;;;;;32.95;28.90;;;12.40;99.90;;;;;;5034345;28;20127;-42
2023/05/07 02:47:15;;;;;;;30.65;27.63;;;12.40;99.90;;;;;;5017212;28;20076;-46
2023/05/07 02:49:41;;;;;;;31.58;28.30;;;12.40;99.90;;;;;;5016427;28;20467;-40
2023/05/07 02:52:07;;;;;;;31.20;27.92;;;12.40;99.90;;;;;;5033301;28;20204;-45
2023/05/07 02:54:33;;;;;;;31.30;28.00;;;12.40;99.90;;;;;;5033195;28;20096;-43
2023/05/07 02:57:00;;;;;;;32.05;27.23;;;12.30;99.90;;;;;;5034950;28;20132;-44
2023/05/07 02:59:26;;;;;;;31.88;28.52;;;12.30;99.90;;;;;;5034674;28;20049;-45
2023/05/07 03:01:52;;;;;;;34.00;30.48;;;12.30;99.90;;;;;;5033572;28;20041;-43
2023/05/07 03:04:17;;;;;;;33.40;29.20;;;12.30;99.90;;;;;;5034480;28;20107;-41
2023/05/07 03:06:43;;;;;;;32.45;28.92;;;12.30;99.90;;;;;;5033683;28;20052;-39
2023/05/07 03:09:09;;;;;;;32.42;28.92;;;12.20;99.90;;;;;;5016481;28;20570;-43
2023/05/07 03:11:35;;;;;;;32.88;28.98;;;12.20;99.90;;;;;;5033330;28;20045;-43
2023/05/07 03:14:01;;;;;;;35.55;30.00;;;12.20;99.90;;;;;;5034140;28;20056;-46
2023/05/07 03:16:27;;;;;;;33.65;29.10;;;12.10;99.90;;;;;;5034901;28;20056;-40
2023/05/07 03:18:53;;;;;;;35.95;32.13;;;12.10;99.90;;;;;;5029211;28;20053;-39
2023/05/07 03:21:18;;;;;;;34.42;30.90;;;12.10;99.90;;;;;;5032835;28;20572;-42
2023/05/07 03:23:44;;;;;;;33.83;30.27;;;12.00;99.90;;;;;;5034561;28;20056;-45
2023/05/07 03:26:10;;;;;;;37.05;32.00;;;12.00;99.90;;;;;;5016646;28;20625;-45
2023/05/07 03:28:36;;;;;;;34.40;30.77;;;12.00;99.90;;;;;;5034061;28;20156;-39
2023/05/07 03:31:02;;;;;;;35.42;30.80;;;11.90;99.90;;;;;;5034107;28;20049;-39
2023/05/07 03:33:28;;;;;;;38.25;32.10;;;11.90;99.90;;;;;;5036763;28;20051;-45
2023/05/07 03:35:54;;;;;;;35.35;31.40;;;11.80;99.90;;;;;;5020605;28;20121;-40
2023/05/07 03:38:19;;;;;;;36.92;30.70;;;11.80;99.90;;;;;;5037833;28;20882;-41
2023/05/07 03:40:45;;;;;;;36.72;31.65;;;11.80;99.90;;;;;;5037757;28;20057;-47
2023/05/07 03:43:11;;;;;;;36.58;32.53;;;11.80;99.90;;;;;;5037239;28;20228;-39
2023/05/07 03:45:36;;;;;;;37.00;32.78;;;11.70;99.90;;;;;;5037729;28;20811;-44
2023/05/07 03:48:02;;;;;;;35.85;31.90;;;11.70;99.90;;;;;;5020015;28;20063;-43
2023/05/07 03:50:28;;;;;;;36.95;32.95;;;11.70;99.90;;;;;;5037765;28;20122;-37
2023/05/07 03:52:53;;;;;;;36.72;32.13;;;11.70;99.90;;;;;;5037592;28;20045;-39
2023/05/07 03:55:19;;;;;;;36.25;32.05;;;11.70;99.90;;;;;;5038055;28;20283;-47
2023/05/07 03:57:45;;;;;;;40.28;33.80;;;11.60;99.90;;;;;;5020014;28;20067;-48
2023/05/07 04:00:11;;;;;;;36.13;32.22;;;11.60;99.90;;;;;;5035932;28;20240;-41
2023/05/07 04:02:37;;;;;;;37.63;33.53;;;11.60;99.90;;;;;;5021314;28;20782;-45
2023/05/07 04:05:03;;;;;;;41.33;34.88;;;11.60;99.90;;;;;;5035646;28;20052;-45
2023/05/07 04:07:28;;;;;;;39.08;34.78;;;11.50;99.90;;;;;;5036142;28;20052;-43
2023/05/07 04:09:54;;;;;;;40.80;36.42;;;11.50;99.90;;;;;;5019862;28;20516;-36
2023/05/07 04:12:20;;;;;;;39.63;34.70;;;11.50;99.90;;;;;;5036349;28;20103;-44
2023/05/07 04:14:45;;;;;;;39.85;34.00;;;11.50;99.90;;;;;;5025806;28;20053;-46
2023/05/07 04:17:11;;;;;;;38.95;33.88;;;11.50;99.90;;;;;;5035440;28;20049;-42
2023/05/07 04:19:36;;;;;;;41.95;34.47;;;11.50;99.90;;;;;;5037453;28;20055;-47
2023/05/07 04:22:02;;;;;;;42.88;35.50;;;11.50;99.90;;;;;;5018719;28;20051;-39
2023/05/07 04:24:32;;;;;;;40.40;35.13;;;11.50;99.90;;;;;;5037575;28;20041;-45
2023/05/07 04:26:58;;;;;;;42.38;35.72;;;11.40;99.90;;;;;;5037268;28;20056;-38
2023/05/07 04:29:24;;;;;;;41.35;36.25;;;11.40;99.90;;;;;;5019225;28;20045;-38
2023/05/07 04:31:50;;;;;;;44.33;36.90;;;11.40;99.90;;;;;;5035977;28;20037;-37
2023/05/07 04:34:15;;;;;;;40.65;35.47;;;11.40;99.90;;;;;;5035939;28;20056;-47
2023/05/07 04:36:42;;;;;;;41.75;36.05;;;11.40;99.90;;;;;;5019306;28;20624;-44
2023/05/07 04:39:08;;;;;;;39.63;35.08;;;11.40;99.90;;;;;;5019508;28;20151;-41
2023/05/07 04:41:36;;;;;;;42.20;36.88;;;11.40;99.90;;;;;;5031425;28;20048;-44
2023/05/07 04:44:04;;;;;;;41.28;35.38;;;11.40;99.90;;;;;;5016040;28;20140;-45
2023/05/07 04:46:30;;;;;;;43.88;38.20;;;11.40;99.90;;;;;;5035401;28;20120;-49
2023/05/07 04:48:55;;;;;;;45.95;37.38;;;11.40;99.90;;;;;;5037318;28;20192;-45
2023/05/07 04:51:21;;;;;;;47.13;38.80;;;11.40;99.90;;;;;;5035803;28;20048;-48
2023/05/07 04:53:47;;;;;;;43.13;37.13;;;11.40;99.90;;;;;;5019188;28;20044;-43
2023/05/07 04:56:13;;;;;;;43.75;37.60;;;11.50;99.90;;;;;;5036506;28;20103;-36
2023/05/07 04:58:39;;;;;;;47.38;38.17;;;11.50;99.90;;;;;;5018922;28;20127;-44
2023/05/07 05:01:04;;;;;;;44.63;38.03;;;11.50;99.90;;;;;;5035410;28;20055;-40
2023/05/07 05:03:30;;;;;;;43.45;37.50;;;11.50;99.90;;;;;;5035883;28;20045;-47
2023/05/07 05:05:59;;;;;;;49.97;40.95;;;11.50;99.90;;;;;;5037015;28;20076;-42
2023/05/07 05:08:25;;;;;;;45.83;40.33;;;11.50;99.90;;;;;;5018580;28;20040;-46
2023/05/07 05:10:51;;;;;;;46.10;38.15;;;11.50;99.90;;;;;;5022520;28;20107;-43
2023/05/07 05:13:16;;;;;;;49.40;41.83;;;11.50;99.90;;;;;;5036116;28;20053;-40
2023/05/07 05:15:42;;;;;;;47.17;38.58;;;11.50;99.90;;;;;;5036086;28;20098;-42
2023/05/07 05:18:08;;;;;;;47.13;40.38;;;11.50;99.90;;;;;;5036649;28;20055;-37
2023/05/07 05:20:33;;;;;;;47.70;39.45;;;11.50;99.90;;;;;;5036090;28;20040;-38
2023/05/07 05:22:59;;;;;;;47.42;39.20;;;11.50;99.90;;;;;;5036704;28;20045;-37
2023/05/07 05:25:25;;;;;;;47.10;38.35;;;11.60;99.90;;;;;;5036253;28;20041;-43
2023/05/07 05:27:50;;;;;;;44.17;39.10;;;11.60;99.90;;;;;;5036786;28;20128;-45
2023/05/07 05:30:16;;;;;;;42.55;37.75;;;11.70;99.90;;;;;;5029463;28;20060;-45
2023/05/07 05:32:42;;;;;;;49.13;40.40;;;11.60;99.90;;;;;;5027626;28;20147;-43
2023/05/07 05:35:08;;;;;;;45.67;40.15;;;11.70;99.90;;;;;;5035538;28;20895;-45
2023/05/07 05:37:33;;;;;;;48.83;39.65;;;11.70;99.90;;;;;;5036514;28;20518;-41
2023/05/07 05:39:59;;;;;;;52.25;40.42;;;11.70;99.90;;;;;;5017350;28;20052;-36
2023/05/07 05:42:25;;;;;;;45.45;37.88;;;11.80;99.90;;;;;;5017479;28;20855;-46
2023/05/07 05:44:50;;;;;;;48.92;40.75;;;11.80;99.90;;;;;;5022394;28;20909;-44
2023/05/07 05:47:16;;;;;;;50.72;39.50;;;11.80;99.90;;;;;;5035393;28;20475;-41
2023/05/07 05:49:43;;;;;;;48.17;39.85;;;11.80;99.90;;;;;;5035398;28;20131;-40
2023/05/07 05:52:09;;;;;;;43.70;36.90;;;11.90;99.90;;;;;;5034972;28;20045;-42
2023/05/07 05:54:34;;;;;;;44.90;38.30;;;12.00;99.90;;;;;;5035285;28;20045;-43
2023/05/07 05:57:03;;;;;;;43.30;38.47;;;12.00;99.90;;;;;;5036122;28;20053;-49
2023/05/07 05:59:29;;;;;;;42.40;37.80;;;12.10;99.90;;;;;;5035726;28;20102;-37
2023/05/07 06:01:55;;;;;;;45.42;38.67;;;12.10;99.90;;;;;;5033652;28;20073;-44
2023/05/07 06:04:20;;;;;;;43.20;36.83;;;12.10;99.90;;;;;;5035203;28;20865;-45
2023/05/07 06:06:46;;;;;;;43.35;38.28;;;12.20;99.90;;;;;;5035231;28;20053;-46
2023/05/07 06:09:12;;;;;;;41.00;36.58;;;12.20;99.90;;;;;;5035595;28;20041;-46
2023/05/07 06:11:37;;;;;;;41.47;35.75;;;12.30;99.90;;;;;;5034450;28;20045;-40
2023/05/07 06:14:03;;;;;;;41.97;36.60;;;12.30;99.90;;;;;;5017901;28;20102;-42
2023/05/07 06:16:29;;;;;;;40.10;35.47;;;12.40;99.90;;;;;;5035651;28;20171;-43
2023/05/07 06:18:54;;;;;;;42.22;37.28;;;12.50;99.90;;;;;;5035391;28;20126;-37
2023/05/07 06:21:20;;;;;;;40.03;35.72;;;12.60;99.90;;;;;;5034150;28;20929;-44
2023/05/07 06:23:46;;;;;;;40.97;36.53;;;12.90;99.90;;;;;;5028401;28;20045;-46
2023/05/07 06:26:11;;;;;;;40.95;36.47;;;13.20;99.90;;;;;;5029059;28;20072;-47
2023/05/07 06:28:37;;;;;;;38.67;33.33;;;13.60;99.90;;;;;;5017899;28;20518;-46
2023/05/07 06:31:12;;;;;;;36.13;32.10;;;13.80;99.90;;;;;;5014137;28;20091;-38
2023/05/07 06:33:38;;;;;;;36.13;31.33;;;14.00;99.90;;;;;;5024092;28;20053;-42
2023/05/07 06:36:05;;;;;;;35.58;31.65;;;14.10;99.90;;;;;;5017468;28;20052;-39
2023/05/07 06:38:30;;;;;;;34.92;31.40;;;14.10;99.90;;;;;;5016943;28;20065;-48
2023/05/07 06:40:57;;;;;;;33.30;29.80;;;14.20;99.90;;;;;;5034143;28;20067;-40
2023/05/07 06:43:22;;;;;;;33.97;30.55;;;14.20;99.90;;;;;;5034580;28;20422;-46
2023/05/07 06:45:48;;;;;;;33.72;30.33;;;14.70;99.90;;;;;;5034672;28;20047;-44
2023/05/07 06:48:14;;;;;;;34.47;30.98;;;14.80;99.90;;;;;;5016691;28;20054;-40
2023/05/07 06:50:40;;;;;;;35.45;31.95;;;14.60;99.90;;;;;;5034270;28;20061;-39
2023/05/07 06:53:05;;;;;;;32.00;28.65;;;14.60;99.90;;;;;;5034198;28;20056;-46
2023/05/07 06:55:31;;;;;;;30.60;27.40;;;14.90;99.90;;;;;;5035048;28;20076;-41
2023/05/07 06:58:00;;;;;;;31.88;28.63;;;15.00;99.90;;;;;;5028476;28;20053;-47
2023/05/07 07:00:30;;;;;;;29.45;26.23;;;15.50;99.90;;;;;;5027976;28;20067;-46
2023/05/07 07:02:56;;;;;;;30.48;27.45;;;16.10;99.90;;;;;;5016158;28;20072;-44
2023/05/07 07:05:21;;;;;;;30.63;27.48;;;16.50;99.90;;;;;;5034279;28;20155;-44
2023/05/07 07:07:52;;;;;;;29.15;26.38;;;16.50;99.90;;;;;;5037463;28;20049;-43
2023/05/07 07:10:22;;;;;;;28.60;25.70;;;16.40;99.90;;;;;;5038072;28;20053;-39
2023/05/07 07:12:48;;;;;;;30.42;27.30;;;16.30;99.90;;;;;;5038542;28;20045;-44
2023/05/07 07:15:14;;;;;;;28.45;25.60;;;16.20;99.90;;;;;;5018935;28;20057;-38
2023/05/07 07:17:40;;;;;;;30.27;27.00;;;16.00;99.90;;;;;;5009194;28;20061;-38
2023/05/07 07:20:06;;;;;;;29.98;26.95;;;15.70;99.90;;;;;;5003849;28;20118;-43
2023/05/07 07:22:32;;;;;;;28.55;25.77;;;15.50;99.90;;;;;;5038365;28;20237;-47
2023/05/07 07:24:58;;;;;;;30.38;27.45;;;15.40;99.90;;;;;;5038655;28;20491;-43
2023/05/07 07:27:23;;;;;;;29.80;26.60;;;15.30;99.90;;;;;;5020276;28;20072;-36
2023/05/07 07:29:49;;;;;;;31.13;27.80;;;15.30;99.90;;;;;;5024340;28;20262;-38
2023/05/07 07:32:15;;;;;;;29.48;26.63;;;15.10;99.90;;;;;;5037110;28;20083;-49
2023/05/07 07:34:41;;;;;;;29.33;26.48;;;14.90;99.90;;;;;;5036318;28;20048;-43
2023/05/07 07:37:06;;;;;;;30.63;27.63;;;15.00;99.90;;;;;;5019589;28;20051;-46
2023/05/07 07:39:33;;;;;;;30.10;27.00;;;15.00;99.90;;;;;;5036622;28;20040;-40
2023/05/07 07:41:59;;;;;;;31.77;28.42;;;15.20;99.90;;;;;;5029258;28;20037;-38
2023/05/07 07:44:25;;;;;;;29.77;26.88;;;15.20;99.90;;;;;;5031886;28;20045;-36
2023/05/07 07:46:50;;;;;;;31.10;27.98;;;15.40;99.90;;;;;;5038046;28;20080;-37
2023/05/07 07:49:16;;;;;;;30.48;27.33;;;15.50;99.90;;;;;;5037807;28;20060;-40
2023/05/07 07:51:42;;;;;;;28.67;25.80;;;15.50;99.90;;;;;;5037174;28;20578;-44
2023/05/07 07:54:08;;;;;;;30.23;27.23;;;15.60;99.90;;;;;;5038049;28;21019;-47
2023/05/07 07:56:34;;;;;;;29.02;25.83;;;15.60;99.90;;;;;;5019620;28;20067;-41
2023/05/07 07:58:59;;;;;;;28.23;25.60;;;15.70;99.90;;;;;;5038386;28;20045;-37
2023/05/07 08:01:26;;;;;;;26.83;24.05;;;15.70;99.90;;;;;;5036867;28;20098;-42
2023/05/07 08:03:52;;;;;;;28.70;25.83;;;15.90;99.90;;;;;;5037420;28;20129;-45
2023/05/07 08:06:18;;;;;;;28.17;25.42;;;16.00;99.90;;;;;;5037868;28;20406;-43
2023/05/07 08:08:44;;;;;;;29.65;26.50;;;16.20;99.90;;;;;;5037632;28;20102;-40
2023/05/07 08:11:10;;;;;;;30.08;26.85;;;16.40;99.90;;;;;;5018123;28;20060;-43
2023/05/07 08:13:37;;;;;;;29.52;26.52;;;16.60;99.90;;;;;;5037350;28;20106;-38
2023/05/07 08:16:03;;;;;;;29.05;26.08;;;16.60;99.90;;;;;;5025998;28;20384;-43
2023/05/07 08:18:29;;;;;;;29.90;26.85;;;16.40;99.90;;;;;;5036676;28;20055;-42
2023/05/07 08:20:55;;;;;;;29.17;26.27;;;16.40;99.90;;;;;;5029251;28;20045;-43
2023/05/07 08:23:21;;;;;;;29.02;26.23;;;16.30;99.90;;;;;;5008958;28;20536;-40
2023/05/07 08:25:47;;;;;;;28.25;25.30;;;16.50;99.90;;;;;;5009498;28;20060;-47
2023/05/07 08:28:12;;;;;;;30.05;27.17;;;16.40;99.90;;;;;;5033585;28;20298;-43
2023/05/07 08:30:38;;;;;;;29.80;26.65;;;16.40;99.90;;;;;;5029514;28;20838;-45
2023/05/07 08:33:04;;;;;;;30.17;27.27;;;16.50;99.90;;;;;;5036427;28;20055;-41
2023/05/07 08:35:29;;;;;;;29.80;26.70;;;16.60;99.90;;;;;;5034815;28;20536;-43
2023/05/07 08:37:55;;;;;;;30.95;27.80;;;16.80;99.90;;;;;;5007119;28;20044;-45
2023/05/07 08:40:25;;;;;;;28.92;26.05;;;17.00;99.90;;;;;;5031884;28;20048;-42
2023/05/07 08:42:53;;;;;;;30.50;27.48;;;17.00;99.90;;;;;;5014946;28;20044;-41
2023/05/07 08:45:20;;;;;;;29.15;26.15;;;17.00;99.90;;;;;;5037407;28;20041;-46
2023/05/07 08:47:55;;;;;;;29.42;26.60;;;17.10;99.90;;;;;;5033847;28;20079;-45
2023/05/07 08:50:21;;;;;;;29.30;26.50;;;17.00;99.90;;;;;;5032536;28;20452;-40
2023/05/07 08:52:48;;;;;;;29.58;26.58;;;16.90;99.90;;;;;;5032314;28;20079;-46
2023/05/07 08:55:14;;;;;;;30.67;27.58;;;16.90;99.90;;;;;;5033313;28;20072;-40
2023/05/07 08:57:40;;;;;;;30.25;27.05;;;16.80;99.90;;;;;;5030143;28;20040;-41
2023/05/07 09:00:07;;;;;;;31.45;28.35;;;16.90;99.90;;;;;;5032694;28;20106;-41
2023/05/07 09:02:34;;;;;;;30.90;27.63;;;17.00;99.90;;;;;;5040660;28;20850;-42
2023/05/07 09:05:00;;;;;;;29.42;26.73;;;17.30;99.90;;;;;;5033803;28;20045;-47
2023/05/07 09:07:26;;;;;;;29.98;27.15;;;17.50;99.90;;;;;;5032111;28;20135;-47
2023/05/07 09:09:52;;;;;;;30.23;27.13;;;17.50;99.90;;;;;;5035566;28;20052;-42
2023/05/07 09:12:18;;;;;;;30.35;27.52;;;17.50;99.90;;;;;;5039827;28;20047;-39
2023/05/07 09:14:45;;;;;;;32.15;29.00;;;17.60;99.90;;;;;;5033239;28;20051;-37
2023/05/07 09:17:11;;;;;;;32.00;28.90;;;17.70;99.90;;;;;;5033082;28;20087;-39
2023/05/07 09:19:37;;;;;;;32.28;28.92;;;17.80;99.90;;;;;;5027767;28;20164;-48
2023/05/07 09:22:07;;;;;;;31.63;28.40;;;17.90;99.90;;;;;;5014176;28;20037;-43
2023/05/07 09:24:37;;;;;;;31.75;28.63;;;17.90;99.90;;;;;;5033088;28;20136;-46
2023/05/07 09:27:08;;;;;;;33.30;30.15;;;17.90;99.90;;;;;;5026002;28;20524;-41
2023/05/07 09:29:37;;;;;;;32.50;29.40;;;17.80;99.90;;;;;;5012571;28;20598;-39
2023/05/07 09:32:04;;;;;;;34.65;31.23;;;17.80;99.90;;;;;;5034920;28;20624;-40
2023/05/07 09:34:30;;;;;;;31.92;28.80;;;18.00;99.90;;;;;;5012990;28;20091;-48
2023/05/07 09:36:58;;;;;;;29.73;26.75;;;18.20;99.90;;;;;;5028623;28;20642;-40
2023/05/07 09:39:25;;;;;;;28.27;25.25;;;18.20;99.90;;;;;;5029230;28;21941;-46
2023/05/07 09:41:52;;;;;;;31.48;28.30;;;18.20;99.90;;;;;;5030961;28;20205;-41
2023/05/07 09:44:18;;;;;;;33.17;29.60;;;18.00;99.90;;;;;;4999793;28;20064;-42
2023/05/07 09:46:46;;;;;;;34.30;30.75;;;17.80;99.90;;;;;;5013324;28;20544;-43
2023/05/07 09:49:20;;;;;;;32.28;29.08;;;17.60;99.90;;;;;;5033477;28;20037;-40
2023/05/07 09:51:51;;;;;;;32.28;28.95;;;17.60;99.90;;;;;;5032593;28;20508;-39
2023/05/07 09:54:18;;;;;;;31.95;29.02;;;17.80;99.90;;;;;;5032107;28;20083;-45
2023/05/07 09:56:45;;;;;;;32.50;29.40;;;17.80;99.90;;;;;;5030166;28;21072;-39
2023/05/07 09:59:13;;;;;;;31.40;28.38;;;17.90;99.90;;;;;;5027173;28;20076;-42
2023/05/07 10:01:43;;;;;;;32.17;28.98;;;17.80;99.90;;;;;;5026853;28;20076;-43
2023/05/07 10:04:10;;;;;;;32.33;29.25;;;17.90;99.90;;;;;;5025421;28;20072;-42
2023/05/07 10:06:40;;;;;;;32.05;28.90;;;17.90;99.90;;;;;;5015225;28;20060;-43
2023/05/07 10:09:06;;;;;;;32.08;28.85;;;18.10;99.90;;;;;;5000121;28;20487;-40
2023/05/07 10:11:34;;;;;;;33.00;29.77;;;18.20;99.90;;;;;;5024712;28;20308;-41
2023/05/07 10:14:01;;;;;;;30.92;27.83;;;18.30;99.90;;;;;;5021051;28;20585;-49
2023/05/07 10:16:32;;;;;;;31.02;28.17;;;18.30;99.90;;;;;;5030549;28;20057;-46
2023/05/07 10:18:59;;;;;;;31.95;28.85;;;18.20;99.90;;;;;;5021603;28;20433;-44
2023/05/07 10:21:27;;;;;;;31.60;28.40;;;18.20;99.90;;;;;;5015619;28;20063;-42
2023/05/07 10:24:05;;;;;;;32.08;28.90;;;18.20;99.90;;;;;;5034945;28;20052;-43
2023/05/07 10:26:32;;;;;;;31.75;28.52;;;18.20;99.90;;;;;;5035114;28;20057;-47
2023/05/07 10:29:05;;;;;;;31.88;28.88;;;18.30;99.90;;;;;;5035399;28;20048;-38
2023/05/07 10:32:06;;;;;;;32.40;29.20;;;18.30;99.90;;;;;;5014477;28;20049;-48
2023/05/07 10:34:41;;;;;;;32.50;29.25;;;18.30;99.90;;;;;;5033461;28;20056;-39
2023/05/07 10:37:08;;;;;;;34.22;30.70;;;18.30;99.90;;;;;;5029510;28;20178;-43
2023/05/07 10:39:34;;;;;;;31.17;28.40;;;18.30;99.90;;;;;;5017195;28;20084;-44
2023/05/07 10:42:11;;;;;;;30.52;27.73;;;18.40;99.90;;;;;;5029824;28;20160;-49
2023/05/07 10:44:37;;;;;;;30.48;27.48;;;18.50;99.90;;;;;;5035002;28;20106;-45
2023/05/07 10:47:10;;;;;;;30.38;27.45;;;18.60;99.90;;;;;;5017697;28;20048;-40
2023/05/07 10:49:56;;;;;;;31.40;28.20;;;18.60;99.90;;;;;;5033287;28;20095;-48
2023/05/07 10:52:25;;;;;;;32.45;29.25;;;18.50;99.90;;;;;;5033735;28;20382;-41
2023/05/07 10:55:24;;;;;;;30.85;27.90;;;18.60;99.90;;;;;;5017766;28;20064;-44
2023/05/07 10:57:50;;;;;;;31.33;28.20;;;18.50;99.90;;;;;;5034727;28;20144;-44
2023/05/07 11:00:25;;;;;;;33.22;30.00;;;18.60;99.90;;;;;;5034569;28;20048;-40
2023/05/07 11:03:00;;;;;;;31.52;28.40;;;18.60;99.90;;;;;;5014627;28;20045;-45
2023/05/07 11:05:30;;;;;;;31.05;28.10;;;18.60;99.90;;;;;;5029446;28;20045;-48
2023/05/07 11:08:00;;;;;;;32.33;29.33;;;18.80;99.90;;;;;;5035072;28;20122;-43
2023/05/07 11:10:48;;;;;;;31.25;28.35;;;18.80;99.90;;;;;;5015907;28;20235;-45
2023/05/07 11:13:15;;;;;;;34.28;30.98;;;18.70;99.90;;;;;;5035467;28;20048;-42
2023/05/07 11:15:44;;;;;;;33.25;30.05;;;18.80;99.90;;;;;;5034524;28;20087;-43
2023/05/07 11:18:11;;;;;;;33.80;30.45;;;18.70;99.90;;;;;;5016548;28;20067;-40
2023/05/07 11:20:46;;;;;;;33.22;29.75;;;18.80;99.90;;;;;;5033590;28;20049;-46
2023/05/07 11:23:40;;;;;;;31.25;28.05;;;18.80;99.90;;;;;;5034407;28;20041;-43
2023/05/07 11:26:11;;;;;;;31.63;28.35;;;18.70;99.90;;;;;;5032007;28;20061;-42
2023/05/07 11:28:41;;;;;;;31.08;28.17;;;18.80;99.90;;;;;;5000168;28;20068;-46
2023/05/07 11:31:07;;;;;;;31.75;28.75;;;18.80;99.90;;;;;;5014780;28;20091;-48
2023/05/07 11:33:34;;;;;;;31.92;28.67;;;18.90;99.90;;;;;;5021791;28;20041;-37
2023/05/07 11:36:02;;;;;;;30.60;27.60;;;18.90;99.90;;;;;;5034820;28;20061;-49
2023/05/07 11:38:29;;;;;;;31.25;28.25;;;18.80;99.90;;;;;;5034538;28;20064;-45
2023/05/07 11:40:56;;;;;;;29.67;26.83;;;18.90;99.90;;;;;;5032160;28;20064;-37
2023/05/07 11:43:22;;;;;;;29.58;26.60;;;19.20;99.90;;;;;;5016196;28;20170;-47
2023/05/07 11:45:48;;;;;;;29.85;26.70;;;19.40;99.90;;;;;;5033833;28;20534;-45
2023/05/07 11:48:15;;;;;;;28.77;26.05;;;19.60;99.90;;;;;;5021510;28;20053;-46
2023/05/07 11:51:00;;;;;;;32.38;29.42;;;19.70;99.90;;;;;;5033077;28;20499;-44
2023/05/07 11:53:27;;;;;;;31.80;28.60;;;19.80;99.90;;;;;;5036605;28;20052;-44
2023/05/07 11:55:54;;;;;;;30.77;27.85;;;20.00;99.90;;;;;;5018892;28;20067;-49
2023/05/07 11:58:22;;;;;;;28.77;25.92;;;20.00;99.90;;;;;;5037774;28;20037;-42
2023/05/07 12:00:54;;;;;;;31.17;28.10;;;20.00;99.90;;;;;;5016820;28;20063;-42
2023/05/07 12:03:20;;;;;;;33.33;29.23;;;19.90;99.90;;;;;;5019471;28;20555;-44
2023/05/07 12:05:47;;;;;;;30.38;27.42;;;20.00;99.90;;;;;;5017087;28;20630;-45
2023/05/07 12:08:17;;;;;;;30.45;27.25;;;20.10;99.90;;;;;;5034344;28;20045;-45
2023/05/07 12:10:44;;;;;;;31.00;27.77;;;20.10;99.90;;;;;;5033961;28;20045;-41
2023/05/07 12:13:16;;;;;;;28.05;25.42;;;20.10;99.90;;;;;;5037109;28;20041;-48
2023/05/07 12:15:42;;;;;;;27.40;24.73;;;20.10;99.90;;;;;;5032819;28;20044;-41
2023/05/07 12:18:09;;;;;;;26.73;24.10;;;20.10;99.90;;;;;;5037266;28;20067;-40
2023/05/07 12:20:36;;;;;;;27.38;24.63;;;20.00;99.90;;;;;;5036195;28;20841;-47
2023/05/07 12:23:03;;;;;;;26.40;23.77;;;19.90;99.90;;;;;;5019374;28;20088;-46
2023/05/07 12:25:34;;;;;;;26.70;24.20;;;20.00;99.90;;;;;;5037157;28;20132;-38
2023/05/07 12:28:01;;;;;;;26.63;24.17;;;20.10;99.90;;;;;;5036973;28;20045;-49